Thursday, October 23, 2014
00:04 UTC
  |  Log In   |  Register Free
Airport Search:

Alpena County Regional Airport
(KAPN)

FAA data valid effective September 18, 2014 - November 13, 2014 (unless otherwise noted).

 
 
 
 
 
 
 
 
 
 
 
 
 
 

Current Aviation Weather for Alpena County Regional Airport (KAPN)

The most recent METAR observation for KAPN was updated at: 2309
METAR Summary (Translated METAR)
KAPN
222254Z AUTO 08004KT 10SM CLR 05/01 A3031 RMK AO2 SLP271 T00500006
KPZQ
222245Z AUTO 35000KT 10SM CLR 04/02 A3032 RMK AO2
(22.4 nm NW from KAPN)
KOSC
222254Z AUTO 06003KT 10SM CLR 05/02 A3031 RMK AO2 T00510022
(38.3 nm SE from KAPN)
TAF Summary (Translated TAF)
KAPN
221720Z 2218/2318 04005KT P6SM FEW030 FM230000 00000KT P6SM SKC FM231400 16005KT P6SM SCT250
  Airport Weather Conditions for KAPN

 Current Weather at APN
41° F
Fair
East winds at 4.6 mph
APN NOAA Radar

Pressure: 30.31 in
Humidity: 73%
Wind: East at 4.6 MPH (4 KT)
Dew Point: 33.1°F
Visibility: 10.00 mi


Airport Weather Forecast for KAPN

Translated METAR and TAF for KAPN
Translated METAR for KAPN (2359 UTC 22 October 2014)
found at http://aviationweather.gov/adds/metars/
 
METAR text: KAPN 222354Z AUTO 00000KT 10SM CLR 03/00 A3031 RMK AO2 SLP272 T00330000 10117 20033 55006
Conditions at: KAPN (ALPENA , MI, US) observed 2354 UTC 22 October 2014
Temperature: 3.3°C (38°F)
Dewpoint: 0.0°C (32°F) [RH = 79%]
Pressure (altimeter): 30.31 inches Hg (1026.5 mb)
[Sea-level pressure: 1027.2 mb]
Winds: calm
Visibility: 10 or more miles (16+ km)
Ceiling: at least 12,000 feet AGL
Clouds: sky clear below 12,000 feet AGL
Weather: automated observation with no human augmentation;
there may or may not be significant weather present at this time
Translated TAF for KAPN
Forecast for: KAPN (ALPENA , MI, US)
TAF Text: KAPN 222320Z 2300/2324 00000KT P6SM SKC
Forecast period: 0000 to 1400 UTC 23 October 2014
Forecast type: FROM: standard forecast or significant change
Winds: calm
Visibility: 6 or more miles (10+ km)
Clouds: clear skies
Weather: no significant weather forecast for this period
TAF Text: FM231400 14005KT P6SM SCT250
Forecast period: 1400 UTC 23 October 2014 to 0000 UTC 24 October 2014
Forecast type: FROM: standard forecast or significant change
Winds: from the SE (140 degrees) at 6 MPH (5 knots; 2.6 m/s)
Visibility: 6 or more miles (10+ km)
Clouds: scattered clouds at 25000 feet AGL
Weather: no significant weather forecast for this period

Find All Airport Services Find A Hotel Find A Rental Car Find A Golf Course Find A Restaurant $100 Hamburger



FBO's on the Field
FBO Company Facility Photos Services Transportation Aviation Fuel Prices: Prices include tax
Catering Weather Repair Courtesy Rental Type 100LL JetA JetA+ MOGAS 8087
 
Aviation Express Inc.

This FBO has not yet been rated
FS:Shell
Last Updated: Oct-16
Login to update fuel prices
SS:
Contact Aviation Express Inc.More FBO Information
 
Aviation North

This FBO has not yet been rated
FS:Avfuel
Last Updated: Oct-06
Login to update fuel prices
SS:
Contact Aviation NorthMore FBO Information
 
Add another FBO Facility Photos Catering Weather Repair Courtesy Rental Type 100LL JetA JetA+ MOGAS 8087
Services Transportation Aviation Fuel Prices: Prices include tax


model-print
model-print
model-print
model-print